Sinking Spring, Ohio
Current Conditions -  °F | °C
As of 5:45 AM on Friday 19 Dec 2014 (Local Time) from KRZT Reporting Station
Overcast Overcast  
Wind Chill: 23°   Ceiling: 1900
Heat Index: 28°   Visibility: 10mi
Dew Point: 21°   Wind: 5mph
Humidity: 74%   Direction: 330°NNW
Pressure: 30.24"   Gusts: NA
Location:  39.07°N, 83.39°W
Report Text: KRZT 191045Z AUTO 33004KT 10SM OVC019 M02/M06 A3024 RMK AO2
Loading
Personal Weather Stations






























Interactive Weather Map New forecast layout! Learn more

10-Day Weather Forecast

Advertisements
Track Severe Weather on mobile